Startpagina
METAR-TAF:

METAR-TAF

Vliegvelden :

Henri Coandă International Airport

Boekarest, Roemenië

breedte: 44-33N, lengte: 026-06E, hoogte: 95 m

Actueel weer

Dit bericht is 30 minuten geleden gemaakt, om 00:00 UTC
Wind 7 kt uit het westen
Temperatuur 2°C
Vochtigheid 93%
Druk 1031 hPa
Zicht: 7000 m

METAR: LROP 220000Z 26007KT 7000 NSC 02/01 Q1031 NOSIG

Tijdstip: 02:30 (00:30 UTC)

Verwachting

Dit bericht is 1 uur en het 30 minuten geleden gemaakt, om 23:00 UTC
Verwachting geldig van 22 om 00 UTC tot 22 om 24 UTC
Wind 4 kt uit variabele richting
Zicht 10 km of meer
geen wolken onder 1500 m en geen cumulonimbus
Kans 30% :
Tijdelijke
van 22 om 01 UTC tot 22 om 06 UTC
Zicht: 3000 m
nevel

TAF: LROP 212300Z 2200/2224 VRB04KT CAVOK PROB30 TEMPO 2201/2206 3000 BR

Waarnemingen en weersverwachtingen van meer dan 4000 vliegvelden (METAR en TAF).

De beschikbare stations zijn de gele en rode punten op de kaart.

Ga met uw muis naar het station om de naam te zien.

Klik dan om waarnemingen en weersverwachtingen te zien.

kaart wijzigen: klik op de groene knoppen met een zwart kruis om in te zoomen, op de groene knop met een streepje om uit te zoomen of op de groene pijlen voor aangrenzende kaarten.


METAR-TAF: